sensor_id;sensor_type;location;lat;lon;timestamp;P1;durP1;ratioP1;P2;durP2;ratioP2
52124;SDS011;38119;52.710;6.398;2023-12-28T00:02:04;8.40;;;3.60;;
52124;SDS011;38119;52.710;6.398;2023-12-28T00:04:30;6.95;;;3.72;;
52124;SDS011;38119;52.710;6.398;2023-12-28T00:06:55;6.55;;;3.60;;
52124;SDS011;38119;52.710;6.398;2023-12-28T00:09:21;8.13;;;3.70;;
52124;SDS011;38119;52.710;6.398;2023-12-28T00:11:47;10.10;;;4.20;;
52124;SDS011;38119;52.710;6.398;2023-12-28T00:14:12;7.45;;;3.58;;
52124;SDS011;38119;52.710;6.398;2023-12-28T00:16:38;5.32;;;3.60;;
52124;SDS011;38119;52.710;6.398;2023-12-28T00:19:03;7.70;;;3.78;;
52124;SDS011;38119;52.710;6.398;2023-12-28T00:21:32;7.05;;;3.53;;
52124;SDS011;38119;52.710;6.398;2023-12-28T00:23:58;7.72;;;3.63;;
52124;SDS011;38119;52.710;6.398;2023-12-28T00:26:23;8.23;;;3.72;;
52124;SDS011;38119;52.710;6.398;2023-12-28T00:28:49;7.65;;;3.65;;
52124;SDS011;38119;52.710;6.398;2023-12-28T00:31:14;6.63;;;3.67;;
52124;SDS011;38119;52.710;6.398;2023-12-28T00:33:40;8.13;;;3.78;;
52124;SDS011;38119;52.710;6.398;2023-12-28T00:36:06;7.63;;;3.85;;
52124;SDS011;38119;52.710;6.398;2023-12-28T00:38:31;8.43;;;3.80;;
52124;SDS011;38119;52.710;6.398;2023-12-28T00:40:57;10.18;;;3.90;;
52124;SDS011;38119;52.710;6.398;2023-12-28T00:43:22;8.32;;;4.03;;
52124;SDS011;38119;52.710;6.398;2023-12-28T00:45:48;6.30;;;3.38;;
52124;SDS011;38119;52.710;6.398;2023-12-28T00:48:14;7.35;;;3.85;;
52124;SDS011;38119;52.710;6.398;2023-12-28T00:50:39;9.93;;;3.75;;
52124;SDS011;38119;52.710;6.398;2023-12-28T00:53:05;8.23;;;4.20;;
52124;SDS011;38119;52.710;6.398;2023-12-28T00:55:30;7.60;;;3.95;;
52124;SDS011;38119;52.710;6.398;2023-12-28T00:57:56;9.70;;;4.38;;
52124;SDS011;38119;52.710;6.398;2023-12-28T01:00:21;13.45;;;4.70;;
52124;SDS011;38119;52.710;6.398;2023-12-28T01:02:47;7.97;;;3.80;;
52124;SDS011;38119;52.710;6.398;2023-12-28T01:05:13;8.32;;;4.05;;
52124;SDS011;38119;52.710;6.398;2023-12-28T01:07:39;9.32;;;4.10;;
52124;SDS011;38119;52.710;6.398;2023-12-28T01:10:05;9.68;;;3.72;;
52124;SDS011;38119;52.710;6.398;2023-12-28T01:12:31;9.35;;;3.85;;
52124;SDS011;38119;52.710;6.398;2023-12-28T01:14:56;9.18;;;3.80;;
52124;SDS011;38119;52.710;6.398;2023-12-28T01:17:23;10.68;;;4.18;;
52124;SDS011;38119;52.710;6.398;2023-12-28T01:19:48;10.80;;;3.85;;
52124;SDS011;38119;52.710;6.398;2023-12-28T01:22:14;11.55;;;4.18;;
52124;SDS011;38119;52.710;6.398;2023-12-28T01:24:39;10.15;;;4.03;;
52124;SDS011;38119;52.710;6.398;2023-12-28T01:27:05;11.25;;;4.00;;
52124;SDS011;38119;52.710;6.398;2023-12-28T01:29:31;12.52;;;4.00;;
52124;SDS011;38119;52.710;6.398;2023-12-28T01:31:57;12.80;;;3.85;;
52124;SDS011;38119;52.710;6.398;2023-12-28T01:34:23;8.10;;;4.20;;
52124;SDS011;38119;52.710;6.398;2023-12-28T01:36:48;10.30;;;3.65;;
52124;SDS011;38119;52.710;6.398;2023-12-28T01:39:14;7.32;;;3.42;;
52124;SDS011;38119;52.710;6.398;2023-12-28T01:41:40;11.57;;;3.67;;
52124;SDS011;38119;52.710;6.398;2023-12-28T01:44:06;10.18;;;3.80;;
52124;SDS011;38119;52.710;6.398;2023-12-28T01:46:32;13.93;;;3.80;;
52124;SDS011;38119;52.710;6.398;2023-12-28T01:48:58;12.05;;;3.47;;
52124;SDS011;38119;52.710;6.398;2023-12-28T01:51:24;11.60;;;3.83;;
52124;SDS011;38119;52.710;6.398;2023-12-28T01:53:51;14.82;;;3.85;;
52124;SDS011;38119;52.710;6.398;2023-12-28T01:56:18;13.93;;;3.80;;
52124;SDS011;38119;52.710;6.398;2023-12-28T01:58:44;10.90;;;3.50;;
52124;SDS011;38119;52.710;6.398;2023-12-28T02:01:13;8.68;;;3.58;;
52124;SDS011;38119;52.710;6.398;2023-12-28T02:03:38;15.82;;;3.72;;
52124;SDS011;38119;52.710;6.398;2023-12-28T02:06:04;11.68;;;3.70;;
52124;SDS011;38119;52.710;6.398;2023-12-28T02:08:32;8.35;;;3.15;;
52124;SDS011;38119;52.710;6.398;2023-12-28T02:10:58;11.48;;;3.60;;
52124;SDS011;38119;52.710;6.398;2023-12-28T02:13:24;13.02;;;3.30;;
52124;SDS011;38119;52.710;6.398;2023-12-28T02:15:51;10.48;;;3.40;;
52124;SDS011;38119;52.710;6.398;2023-12-28T02:18:30;10.90;;;3.20;;
52124;SDS011;38119;52.710;6.398;2023-12-28T02:21:03;13.07;;;4.03;;
52124;SDS011;38119;52.710;6.398;2023-12-28T02:23:32;13.32;;;3.20;;
52124;SDS011;38119;52.710;6.398;2023-12-28T02:25:58;15.50;;;3.67;;
52124;SDS011;38119;52.710;6.398;2023-12-28T02:28:23;11.40;;;3.50;;
52124;SDS011;38119;52.710;6.398;2023-12-28T02:30:49;13.07;;;3.42;;
52124;SDS011;38119;52.710;6.398;2023-12-28T02:36:01;14.52;;;3.80;;
52124;SDS011;38119;52.710;6.398;2023-12-28T02:38:30;12.38;;;3.13;;
52124;SDS011;38119;52.710;6.398;2023-12-28T02:41:00;10.52;;;3.00;;
52124;SDS011;38119;52.710;6.398;2023-12-28T02:43:27;8.73;;;2.58;;
52124;SDS011;38119;52.710;6.398;2023-12-28T02:45:53;10.23;;;3.10;;
52124;SDS011;38119;52.710;6.398;2023-12-28T02:48:19;12.63;;;3.80;;
52124;SDS011;38119;52.710;6.398;2023-12-28T02:50:44;14.60;;;3.58;;
52124;SDS011;38119;52.710;6.398;2023-12-28T02:53:10;15.27;;;3.67;;
52124;SDS011;38119;52.710;6.398;2023-12-28T02:55:36;10.55;;;3.50;;
52124;SDS011;38119;52.710;6.398;2023-12-28T02:58:02;8.65;;;3.53;;
52124;SDS011;38119;52.710;6.398;2023-12-28T03:00:28;11.07;;;3.58;;
52124;SDS011;38119;52.710;6.398;2023-12-28T03:02:53;12.82;;;3.63;;
52124;SDS011;38119;52.710;6.398;2023-12-28T03:05:19;10.43;;;4.03;;
52124;SDS011;38119;52.710;6.398;2023-12-28T03:07:45;12.48;;;3.83;;
52124;SDS011;38119;52.710;6.398;2023-12-28T03:10:11;16.15;;;3.30;;
52124;SDS011;38119;52.710;6.398;2023-12-28T03:12:37;9.60;;;3.30;;
52124;SDS011;38119;52.710;6.398;2023-12-28T03:15:03;10.68;;;3.20;;
52124;SDS011;38119;52.710;6.398;2023-12-28T03:17:29;9.57;;;3.20;;
52124;SDS011;38119;52.710;6.398;2023-12-28T03:19:55;11.07;;;3.15;;
52124;SDS011;38119;52.710;6.398;2023-12-28T03:22:22;8.07;;;3.22;;
52124;SDS011;38119;52.710;6.398;2023-12-28T03:24:47;11.90;;;3.17;;
52124;SDS011;38119;52.710;6.398;2023-12-28T03:27:14;11.70;;;3.33;;
52124;SDS011;38119;52.710;6.398;2023-12-28T03:29:40;10.65;;;3.15;;
52124;SDS011;38119;52.710;6.398;2023-12-28T03:32:07;9.63;;;2.70;;
52124;SDS011;38119;52.710;6.398;2023-12-28T03:34:33;9.48;;;3.00;;
52124;SDS011;38119;52.710;6.398;2023-12-28T03:36:59;9.88;;;3.63;;
52124;SDS011;38119;52.710;6.398;2023-12-28T03:39:25;9.32;;;3.03;;
52124;SDS011;38119;52.710;6.398;2023-12-28T03:41:50;10.55;;;2.88;;
52124;SDS011;38119;52.710;6.398;2023-12-28T03:44:18;7.57;;;2.92;;
52124;SDS011;38119;52.710;6.398;2023-12-28T03:46:50;9.60;;;2.72;;
52124;SDS011;38119;52.710;6.398;2023-12-28T03:49:19;10.98;;;3.13;;
52124;SDS011;38119;52.710;6.398;2023-12-28T03:51:45;8.43;;;3.28;;
52124;SDS011;38119;52.710;6.398;2023-12-28T03:54:17;9.13;;;2.90;;
52124;SDS011;38119;52.710;6.398;2023-12-28T03:56:43;11.02;;;3.13;;
52124;SDS011;38119;52.710;6.398;2023-12-28T03:59:10;11.25;;;2.72;;
52124;SDS011;38119;52.710;6.398;2023-12-28T04:01:36;8.55;;;2.80;;
52124;SDS011;38119;52.710;6.398;2023-12-28T04:04:01;9.85;;;3.03;;
52124;SDS011;38119;52.710;6.398;2023-12-28T04:06:27;12.48;;;2.95;;
52124;SDS011;38119;52.710;6.398;2023-12-28T04:08:53;11.35;;;2.55;;
52124;SDS011;38119;52.710;6.398;2023-12-28T04:11:18;15.30;;;3.45;;
52124;SDS011;38119;52.710;6.398;2023-12-28T04:13:44;10.10;;;2.60;;
52124;SDS011;38119;52.710;6.398;2023-12-28T04:16:13;13.68;;;2.88;;
52124;SDS011;38119;52.710;6.398;2023-12-28T04:18:40;10.98;;;2.53;;
52124;SDS011;38119;52.710;6.398;2023-12-28T04:21:09;11.43;;;2.67;;
52124;SDS011;38119;52.710;6.398;2023-12-28T04:23:39;17.73;;;4.05;;
52124;SDS011;38119;52.710;6.398;2023-12-28T04:26:05;12.85;;;3.33;;
52124;SDS011;38119;52.710;6.398;2023-12-28T04:28:31;16.45;;;2.95;;
52124;SDS011;38119;52.710;6.398;2023-12-28T04:31:01;13.18;;;2.85;;
52124;SDS011;38119;52.710;6.398;2023-12-28T04:33:30;7.82;;;2.42;;
52124;SDS011;38119;52.710;6.398;2023-12-28T04:35:56;9.85;;;2.50;;
52124;SDS011;38119;52.710;6.398;2023-12-28T04:38:22;15.75;;;3.20;;
52124;SDS011;38119;52.710;6.398;2023-12-28T04:40:47;15.10;;;3.13;;
52124;SDS011;38119;52.710;6.398;2023-12-28T04:43:13;12.80;;;3.05;;
52124;SDS011;38119;52.710;6.398;2023-12-28T04:45:38;12.40;;;2.85;;
52124;SDS011;38119;52.710;6.398;2023-12-28T04:48:04;16.52;;;2.83;;
52124;SDS011;38119;52.710;6.398;2023-12-28T04:50:30;11.63;;;2.92;;
52124;SDS011;38119;52.710;6.398;2023-12-28T04:52:55;14.10;;;2.97;;
52124;SDS011;38119;52.710;6.398;2023-12-28T04:55:21;13.02;;;2.67;;
52124;SDS011;38119;52.710;6.398;2023-12-28T04:57:46;13.13;;;2.80;;
52124;SDS011;38119;52.710;6.398;2023-12-28T05:00:12;12.98;;;2.90;;
52124;SDS011;38119;52.710;6.398;2023-12-28T05:02:38;18.17;;;3.42;;
52124;SDS011;38119;52.710;6.398;2023-12-28T05:05:03;15.80;;;2.85;;
52124;SDS011;38119;52.710;6.398;2023-12-28T05:07:29;14.55;;;3.08;;
52124;SDS011;38119;52.710;6.398;2023-12-28T05:09:54;8.60;;;2.83;;
52124;SDS011;38119;52.710;6.398;2023-12-28T05:12:20;17.40;;;3.28;;
52124;SDS011;38119;52.710;6.398;2023-12-28T05:14:46;14.75;;;2.70;;
52124;SDS011;38119;52.710;6.398;2023-12-28T05:17:11;20.45;;;3.38;;
52124;SDS011;38119;52.710;6.398;2023-12-28T05:19:37;12.57;;;3.00;;
52124;SDS011;38119;52.710;6.398;2023-12-28T05:22:02;11.90;;;3.35;;
52124;SDS011;38119;52.710;6.398;2023-12-28T05:24:31;12.52;;;2.83;;
52124;SDS011;38119;52.710;6.398;2023-12-28T05:26:57;16.92;;;3.08;;
52124;SDS011;38119;52.710;6.398;2023-12-28T05:29:23;16.67;;;3.55;;
52124;SDS011;38119;52.710;6.398;2023-12-28T05:31:48;15.07;;;3.15;;
52124;SDS011;38119;52.710;6.398;2023-12-28T05:34:14;12.13;;;2.75;;
52124;SDS011;38119;52.710;6.398;2023-12-28T05:36:39;13.25;;;2.80;;
52124;SDS011;38119;52.710;6.398;2023-12-28T05:39:06;12.90;;;2.65;;
52124;SDS011;38119;52.710;6.398;2023-12-28T05:41:34;15.25;;;3.20;;
52124;SDS011;38119;52.710;6.398;2023-12-28T05:44:00;11.25;;;2.90;;
52124;SDS011;38119;52.710;6.398;2023-12-28T05:46:25;12.60;;;3.08;;
52124;SDS011;38119;52.710;6.398;2023-12-28T05:48:51;15.75;;;3.60;;
52124;SDS011;38119;52.710;6.398;2023-12-28T05:51:16;17.10;;;3.30;;
52124;SDS011;38119;52.710;6.398;2023-12-28T05:53:43;13.75;;;3.55;;
52124;SDS011;38119;52.710;6.398;2023-12-28T05:56:09;15.93;;;3.42;;
52124;SDS011;38119;52.710;6.398;2023-12-28T05:58:34;12.98;;;2.95;;
52124;SDS011;38119;52.710;6.398;2023-12-28T06:01:01;11.20;;;2.85;;
52124;SDS011;38119;52.710;6.398;2023-12-28T06:03:30;14.63;;;3.00;;
52124;SDS011;38119;52.710;6.398;2023-12-28T06:05:55;14.35;;;3.08;;
52124;SDS011;38119;52.710;6.398;2023-12-28T06:08:21;12.90;;;2.72;;
52124;SDS011;38119;52.710;6.398;2023-12-28T06:10:47;12.10;;;3.03;;
52124;SDS011;38119;52.710;6.398;2023-12-28T06:13:12;12.25;;;2.53;;
52124;SDS011;38119;52.710;6.398;2023-12-28T06:15:38;22.67;;;2.78;;
52124;SDS011;38119;52.710;6.398;2023-12-28T06:18:03;19.20;;;4.07;;
52124;SDS011;38119;52.710;6.398;2023-12-28T06:20:29;16.02;;;2.83;;
52124;SDS011;38119;52.710;6.398;2023-12-28T06:22:55;17.75;;;3.58;;
52124;SDS011;38119;52.710;6.398;2023-12-28T06:25:20;17.73;;;3.20;;
52124;SDS011;38119;52.710;6.398;2023-12-28T06:27:46;17.40;;;3.95;;
52124;SDS011;38119;52.710;6.398;2023-12-28T06:30:12;15.95;;;4.72;;
52124;SDS011;38119;52.710;6.398;2023-12-28T06:32:38;12.20;;;2.75;;
52124;SDS011;38119;52.710;6.398;2023-12-28T06:35:04;13.88;;;3.13;;
52124;SDS011;38119;52.710;6.398;2023-12-28T06:37:30;12.55;;;3.03;;
52124;SDS011;38119;52.710;6.398;2023-12-28T06:39:56;15.18;;;2.80;;
52124;SDS011;38119;52.710;6.398;2023-12-28T06:42:21;12.98;;;2.67;;
52124;SDS011;38119;52.710;6.398;2023-12-28T06:44:47;15.63;;;2.95;;
52124;SDS011;38119;52.710;6.398;2023-12-28T06:47:12;19.42;;;3.15;;
52124;SDS011;38119;52.710;6.398;2023-12-28T06:49:38;18.88;;;3.55;;
52124;SDS011;38119;52.710;6.398;2023-12-28T06:52:03;17.20;;;3.83;;
52124;SDS011;38119;52.710;6.398;2023-12-28T06:54:29;17.05;;;3.97;;
52124;SDS011;38119;52.710;6.398;2023-12-28T06:56:55;18.63;;;3.42;;
52124;SDS011;38119;52.710;6.398;2023-12-28T06:59:20;17.75;;;3.25;;
52124;SDS011;38119;52.710;6.398;2023-12-28T07:01:46;16.58;;;3.08;;
52124;SDS011;38119;52.710;6.398;2023-12-28T07:04:13;18.73;;;3.47;;
52124;SDS011;38119;52.710;6.398;2023-12-28T07:06:38;16.80;;;3.78;;
52124;SDS011;38119;52.710;6.398;2023-12-28T07:09:04;18.52;;;3.20;;
52124;SDS011;38119;52.710;6.398;2023-12-28T07:11:30;14.65;;;2.80;;
52124;SDS011;38119;52.710;6.398;2023-12-28T07:13:56;21.05;;;3.95;;
52124;SDS011;38119;52.710;6.398;2023-12-28T07:16:21;17.20;;;3.25;;
52124;SDS011;38119;52.710;6.398;2023-12-28T07:18:47;16.67;;;3.20;;
52124;SDS011;38119;52.710;6.398;2023-12-28T07:21:13;15.88;;;3.20;;
52124;SDS011;38119;52.710;6.398;2023-12-28T07:23:38;21.00;;;3.72;;
52124;SDS011;38119;52.710;6.398;2023-12-28T07:26:04;19.10;;;3.72;;
52124;SDS011;38119;52.710;6.398;2023-12-28T07:28:30;17.35;;;3.47;;
52124;SDS011;38119;52.710;6.398;2023-12-28T07:30:56;16.20;;;3.50;;
52124;SDS011;38119;52.710;6.398;2023-12-28T07:33:21;16.65;;;3.88;;
52124;SDS011;38119;52.710;6.398;2023-12-28T07:35:47;17.08;;;3.63;;
52124;SDS011;38119;52.710;6.398;2023-12-28T07:38:13;28.15;;;4.07;;
52124;SDS011;38119;52.710;6.398;2023-12-28T07:40:39;19.98;;;3.90;;
52124;SDS011;38119;52.710;6.398;2023-12-28T07:43:04;17.40;;;3.92;;
52124;SDS011;38119;52.710;6.398;2023-12-28T07:45:30;15.02;;;3.50;;
52124;SDS011;38119;52.710;6.398;2023-12-28T07:47:56;17.10;;;4.63;;
52124;SDS011;38119;52.710;6.398;2023-12-28T07:50:23;20.23;;;3.75;;
52124;SDS011;38119;52.710;6.398;2023-12-28T07:52:49;15.55;;;3.33;;
52124;SDS011;38119;52.710;6.398;2023-12-28T07:55:14;21.88;;;4.30;;
52124;SDS011;38119;52.710;6.398;2023-12-28T07:57:40;20.17;;;3.78;;
52124;SDS011;38119;52.710;6.398;2023-12-28T08:00:06;24.33;;;4.00;;
52124;SDS011;38119;52.710;6.398;2023-12-28T08:02:33;18.60;;;4.93;;
52124;SDS011;38119;52.710;6.398;2023-12-28T08:04:58;19.25;;;4.03;;
52124;SDS011;38119;52.710;6.398;2023-12-28T08:07:24;16.05;;;3.00;;
52124;SDS011;38119;52.710;6.398;2023-12-28T08:09:49;22.10;;;3.95;;
52124;SDS011;38119;52.710;6.398;2023-12-28T08:12:15;24.77;;;4.28;;
52124;SDS011;38119;52.710;6.398;2023-12-28T08:14:42;16.58;;;3.88;;
52124;SDS011;38119;52.710;6.398;2023-12-28T08:17:08;19.08;;;3.53;;
52124;SDS011;38119;52.710;6.398;2023-12-28T08:19:33;24.83;;;4.50;;
52124;SDS011;38119;52.710;6.398;2023-12-28T08:21:59;21.67;;;3.55;;
52124;SDS011;38119;52.710;6.398;2023-12-28T08:24:24;27.42;;;4.28;;
52124;SDS011;38119;52.710;6.398;2023-12-28T08:26:50;20.42;;;3.42;;
52124;SDS011;38119;52.710;6.398;2023-12-28T08:29:15;17.55;;;3.97;;
52124;SDS011;38119;52.710;6.398;2023-12-28T08:31:41;18.45;;;3.70;;
52124;SDS011;38119;52.710;6.398;2023-12-28T08:34:06;23.77;;;4.28;;
52124;SDS011;38119;52.710;6.398;2023-12-28T08:36:32;22.27;;;4.38;;
52124;SDS011;38119;52.710;6.398;2023-12-28T08:38:58;19.15;;;3.75;;
52124;SDS011;38119;52.710;6.398;2023-12-28T08:41:23;24.10;;;4.50;;
52124;SDS011;38119;52.710;6.398;2023-12-28T08:43:49;16.05;;;3.90;;
52124;SDS011;38119;52.710;6.398;2023-12-28T08:46:15;20.08;;;3.85;;
52124;SDS011;38119;52.710;6.398;2023-12-28T08:48:41;22.83;;;4.25;;
52124;SDS011;38119;52.710;6.398;2023-12-28T08:51:08;22.25;;;4.78;;
52124;SDS011;38119;52.710;6.398;2023-12-28T08:53:34;17.70;;;3.70;;
52124;SDS011;38119;52.710;6.398;2023-12-28T08:56:00;22.63;;;4.40;;
52124;SDS011;38119;52.710;6.398;2023-12-28T08:58:25;19.63;;;3.80;;
52124;SDS011;38119;52.710;6.398;2023-12-28T09:00:51;26.20;;;3.85;;
52124;SDS011;38119;52.710;6.398;2023-12-28T09:03:16;22.02;;;3.83;;
52124;SDS011;38119;52.710;6.398;2023-12-28T09:05:42;21.45;;;3.83;;
52124;SDS011;38119;52.710;6.398;2023-12-28T09:08:08;19.15;;;3.83;;
52124;SDS011;38119;52.710;6.398;2023-12-28T09:10:34;22.63;;;4.03;;
52124;SDS011;38119;52.710;6.398;2023-12-28T09:12:59;21.92;;;4.07;;
52124;SDS011;38119;52.710;6.398;2023-12-28T09:15:25;24.35;;;3.90;;
52124;SDS011;38119;52.710;6.398;2023-12-28T09:17:50;18.40;;;3.45;;
52124;SDS011;38119;52.710;6.398;2023-12-28T09:20:16;16.85;;;3.65;;
52124;SDS011;38119;52.710;6.398;2023-12-28T09:22:43;22.33;;;3.78;;
52124;SDS011;38119;52.710;6.398;2023-12-28T09:25:08;18.77;;;3.53;;
52124;SDS011;38119;52.710;6.398;2023-12-28T09:27:34;18.30;;;3.50;;
52124;SDS011;38119;52.710;6.398;2023-12-28T09:29:59;18.48;;;3.70;;
52124;SDS011;38119;52.710;6.398;2023-12-28T09:32:25;17.73;;;4.07;;
52124;SDS011;38119;52.710;6.398;2023-12-28T09:34:51;17.13;;;3.45;;
52124;SDS011;38119;52.710;6.398;2023-12-28T09:37:16;18.73;;;4.32;;
52124;SDS011;38119;52.710;6.398;2023-12-28T09:39:42;21.63;;;4.25;;
52124;SDS011;38119;52.710;6.398;2023-12-28T09:42:15;24.00;;;3.42;;
52124;SDS011;38119;52.710;6.398;2023-12-28T09:44:46;19.00;;;4.20;;
52124;SDS011;38119;52.710;6.398;2023-12-28T09:47:12;25.10;;;4.82;;
52124;SDS011;38119;52.710;6.398;2023-12-28T09:49:39;19.88;;;4.00;;
52124;SDS011;38119;52.710;6.398;2023-12-28T09:52:06;20.23;;;4.15;;
52124;SDS011;38119;52.710;6.398;2023-12-28T09:54:32;22.67;;;3.45;;
52124;SDS011;38119;52.710;6.398;2023-12-28T09:56:59;25.80;;;4.43;;
52124;SDS011;38119;52.710;6.398;2023-12-28T09:59:25;19.08;;;3.92;;
52124;SDS011;38119;52.710;6.398;2023-12-28T10:01:52;24.08;;;3.58;;
52124;SDS011;38119;52.710;6.398;2023-12-28T10:04:20;21.73;;;4.53;;
52124;SDS011;38119;52.710;6.398;2023-12-28T10:06:46;21.17;;;3.80;;
52124;SDS011;38119;52.710;6.398;2023-12-28T10:09:12;20.88;;;4.00;;
52124;SDS011;38119;52.710;6.398;2023-12-28T10:11:38;20.05;;;3.80;;
52124;SDS011;38119;52.710;6.398;2023-12-28T10:14:03;22.92;;;4.15;;
52124;SDS011;38119;52.710;6.398;2023-12-28T10:16:29;21.63;;;3.90;;
52124;SDS011;38119;52.710;6.398;2023-12-28T10:18:55;21.50;;;4.30;;
52124;SDS011;38119;52.710;6.398;2023-12-28T10:21:24;22.88;;;4.90;;
52124;SDS011;38119;52.710;6.398;2023-12-28T10:23:50;20.25;;;3.97;;
52124;SDS011;38119;52.710;6.398;2023-12-28T10:26:17;17.98;;;3.10;;
52124;SDS011;38119;52.710;6.398;2023-12-28T10:28:44;22.50;;;3.70;;
52124;SDS011;38119;52.710;6.398;2023-12-28T10:31:09;21.20;;;4.15;;
52124;SDS011;38119;52.710;6.398;2023-12-28T10:33:35;17.88;;;3.75;;
52124;SDS011;38119;52.710;6.398;2023-12-28T10:36:01;19.42;;;3.95;;
52124;SDS011;38119;52.710;6.398;2023-12-28T10:38:34;16.65;;;3.70;;
52124;SDS011;38119;52.710;6.398;2023-12-28T10:41:02;17.00;;;3.20;;
52124;SDS011;38119;52.710;6.398;2023-12-28T10:43:33;20.25;;;3.60;;
52124;SDS011;38119;52.710;6.398;2023-12-28T10:46:13;21.67;;;4.07;;
52124;SDS011;38119;52.710;6.398;2023-12-28T10:48:52;19.88;;;3.83;;
52124;SDS011;38119;52.710;6.398;2023-12-28T10:51:23;15.80;;;3.50;;
52124;SDS011;38119;52.710;6.398;2023-12-28T10:54:01;22.50;;;3.60;;
52124;SDS011;38119;52.710;6.398;2023-12-28T10:56:41;22.27;;;3.85;;
52124;SDS011;38119;52.710;6.398;2023-12-28T10:59:23;18.02;;;3.70;;
52124;SDS011;38119;52.710;6.398;2023-12-28T11:02:09;20.02;;;3.67;;
52124;SDS011;38119;52.710;6.398;2023-12-28T11:04:48;21.17;;;3.88;;
52124;SDS011;38119;52.710;6.398;2023-12-28T11:07:17;18.50;;;3.63;;
52124;SDS011;38119;52.710;6.398;2023-12-28T11:09:43;17.70;;;3.60;;
52124;SDS011;38119;52.710;6.398;2023-12-28T11:12:09;17.23;;;3.75;;
52124;SDS011;38119;52.710;6.398;2023-12-28T11:14:36;19.40;;;3.50;;
52124;SDS011;38119;52.710;6.398;2023-12-28T11:17:07;18.20;;;3.80;;
52124;SDS011;38119;52.710;6.398;2023-12-28T11:19:34;19.25;;;3.47;;
52124;SDS011;38119;52.710;6.398;2023-12-28T11:22:03;18.55;;;3.60;;
52124;SDS011;38119;52.710;6.398;2023-12-28T11:24:30;18.27;;;3.33;;
52124;SDS011;38119;52.710;6.398;2023-12-28T11:26:57;20.63;;;3.85;;
52124;SDS011;38119;52.710;6.398;2023-12-28T11:29:23;17.20;;;4.10;;
52124;SDS011;38119;52.710;6.398;2023-12-28T11:31:52;19.70;;;3.05;;
52124;SDS011;38119;52.710;6.398;2023-12-28T11:34:24;21.27;;;3.80;;
52124;SDS011;38119;52.710;6.398;2023-12-28T11:36:51;12.85;;;3.03;;
52124;SDS011;38119;52.710;6.398;2023-12-28T11:39:20;18.17;;;3.42;;
52124;SDS011;38119;52.710;6.398;2023-12-28T11:42:08;14.95;;;3.80;;
52124;SDS011;38119;52.710;6.398;2023-12-28T11:44:41;21.30;;;4.07;;
52124;SDS011;38119;52.710;6.398;2023-12-28T11:47:16;18.77;;;3.30;;
52124;SDS011;38119;52.710;6.398;2023-12-28T11:49:45;23.15;;;3.80;;
52124;SDS011;38119;52.710;6.398;2023-12-28T11:52:22;20.42;;;3.95;;
52124;SDS011;38119;52.710;6.398;2023-12-28T11:54:49;24.23;;;3.97;;
52124;SDS011;38119;52.710;6.398;2023-12-28T11:57:15;25.60;;;4.25;;
52124;SDS011;38119;52.710;6.398;2023-12-28T11:59:41;19.55;;;3.80;;
52124;SDS011;38119;52.710;6.398;2023-12-28T12:02:06;16.27;;;4.65;;
52124;SDS011;38119;52.710;6.398;2023-12-28T12:04:33;21.33;;;4.18;;
52124;SDS011;38119;52.710;6.398;2023-12-28T12:07:01;22.23;;;4.22;;
52124;SDS011;38119;52.710;6.398;2023-12-28T12:09:28;16.90;;;3.28;;
52124;SDS011;38119;52.710;6.398;2023-12-28T12:11:57;22.88;;;4.15;;
52124;SDS011;38119;52.710;6.398;2023-12-28T12:14:23;26.80;;;3.88;;
52124;SDS011;38119;52.710;6.398;2023-12-28T12:16:48;21.95;;;4.28;;
52124;SDS011;38119;52.710;6.398;2023-12-28T12:19:14;22.65;;;4.03;;
52124;SDS011;38119;52.710;6.398;2023-12-28T12:21:40;30.83;;;4.57;;
52124;SDS011;38119;52.710;6.398;2023-12-28T12:24:06;27.38;;;4.10;;
52124;SDS011;38119;52.710;6.398;2023-12-28T12:26:32;25.98;;;4.95;;
52124;SDS011;38119;52.710;6.398;2023-12-28T12:28:58;23.38;;;4.32;;
52124;SDS011;38119;52.710;6.398;2023-12-28T12:31:24;25.10;;;5.00;;
52124;SDS011;38119;52.710;6.398;2023-12-28T12:33:51;25.95;;;3.78;;
52124;SDS011;38119;52.710;6.398;2023-12-28T12:36:17;27.52;;;4.45;;
52124;SDS011;38119;52.710;6.398;2023-12-28T12:38:42;16.00;;;3.78;;
52124;SDS011;38119;52.710;6.398;2023-12-28T12:41:10;20.67;;;4.13;;
52124;SDS011;38119;52.710;6.398;2023-12-28T12:43:36;29.08;;;4.30;;
52124;SDS011;38119;52.710;6.398;2023-12-28T12:46:03;22.77;;;3.50;;
52124;SDS011;38119;52.710;6.398;2023-12-28T12:48:29;22.63;;;3.70;;
52124;SDS011;38119;52.710;6.398;2023-12-28T12:50:55;17.33;;;3.88;;
52124;SDS011;38119;52.710;6.398;2023-12-28T12:53:21;30.88;;;4.65;;
52124;SDS011;38119;52.710;6.398;2023-12-28T12:55:47;24.15;;;3.63;;
52124;SDS011;38119;52.710;6.398;2023-12-28T12:58:13;18.52;;;3.50;;
52124;SDS011;38119;52.710;6.398;2023-12-28T13:00:41;20.92;;;4.40;;
52124;SDS011;38119;52.710;6.398;2023-12-28T13:03:07;22.52;;;3.97;;
52124;SDS011;38119;52.710;6.398;2023-12-28T13:05:35;23.17;;;3.97;;
52124;SDS011;38119;52.710;6.398;2023-12-28T13:08:04;19.50;;;3.78;;
52124;SDS011;38119;52.710;6.398;2023-12-28T13:10:30;27.88;;;4.43;;
52124;SDS011;38119;52.710;6.398;2023-12-28T13:12:56;23.13;;;4.97;;
52124;SDS011;38119;52.710;6.398;2023-12-28T13:15:21;20.08;;;3.67;;
52124;SDS011;38119;52.710;6.398;2023-12-28T13:17:47;19.08;;;3.72;;
52124;SDS011;38119;52.710;6.398;2023-12-28T13:20:13;20.98;;;4.50;;
52124;SDS011;38119;52.710;6.398;2023-12-28T13:22:39;18.02;;;4.07;;
52124;SDS011;38119;52.710;6.398;2023-12-28T13:25:05;26.15;;;4.78;;
52124;SDS011;38119;52.710;6.398;2023-12-28T13:27:31;20.20;;;4.05;;
52124;SDS011;38119;52.710;6.398;2023-12-28T13:29:57;23.55;;;4.53;;
52124;SDS011;38119;52.710;6.398;2023-12-28T13:32:22;23.83;;;4.80;;
52124;SDS011;38119;52.710;6.398;2023-12-28T13:34:48;18.80;;;3.80;;
52124;SDS011;38119;52.710;6.398;2023-12-28T13:37:16;20.42;;;4.53;;
52124;SDS011;38119;52.710;6.398;2023-12-28T13:39:41;21.08;;;4.25;;
52124;SDS011;38119;52.710;6.398;2023-12-28T13:42:07;16.52;;;4.05;;
52124;SDS011;38119;52.710;6.398;2023-12-28T13:44:33;22.42;;;4.50;;
52124;SDS011;38119;52.710;6.398;2023-12-28T13:47:02;25.52;;;4.30;;
52124;SDS011;38119;52.710;6.398;2023-12-28T13:49:28;19.67;;;3.90;;
52124;SDS011;38119;52.710;6.398;2023-12-28T13:51:54;23.10;;;3.78;;
52124;SDS011;38119;52.710;6.398;2023-12-28T13:54:20;20.05;;;4.10;;
52124;SDS011;38119;52.710;6.398;2023-12-28T13:56:46;20.50;;;3.47;;
52124;SDS011;38119;52.710;6.398;2023-12-28T13:59:12;19.48;;;4.10;;
52124;SDS011;38119;52.710;6.398;2023-12-28T14:01:38;22.67;;;3.45;;
52124;SDS011;38119;52.710;6.398;2023-12-28T14:04:04;23.05;;;4.13;;
52124;SDS011;38119;52.710;6.398;2023-12-28T14:06:29;22.90;;;4.25;;
52124;SDS011;38119;52.710;6.398;2023-12-28T14:08:55;22.60;;;3.85;;
52124;SDS011;38119;52.710;6.398;2023-12-28T14:11:22;17.20;;;4.20;;
52124;SDS011;38119;52.710;6.398;2023-12-28T14:13:48;22.88;;;4.63;;
52124;SDS011;38119;52.710;6.398;2023-12-28T14:16:14;20.38;;;4.28;;
52124;SDS011;38119;52.710;6.398;2023-12-28T14:18:39;20.73;;;3.42;;
52124;SDS011;38119;52.710;6.398;2023-12-28T14:21:07;24.83;;;3.90;;
52124;SDS011;38119;52.710;6.398;2023-12-28T14:23:38;20.05;;;3.25;;
52124;SDS011;38119;52.710;6.398;2023-12-28T14:26:07;21.30;;;3.38;;
52124;SDS011;38119;52.710;6.398;2023-12-28T14:28:40;22.08;;;3.95;;
52124;SDS011;38119;52.710;6.398;2023-12-28T14:31:12;22.13;;;4.40;;
52124;SDS011;38119;52.710;6.398;2023-12-28T14:33:38;17.85;;;3.17;;
52124;SDS011;38119;52.710;6.398;2023-12-28T14:36:06;17.50;;;3.75;;